KGTB

Wheeler-Sack AAF Airport

Fort Drum, New York, USA
METAR KGTB 230456Z AUTO 14008KT 10SM FEW070 04/04 A3004 RMK AO2 SLP179 T00360036 400591004 $
Observed Flight Rules
Oct-23 @ 04:56 UTC (an hour ago) Visual Flight Rules
Wind Visibility Clouds
140° at 8 knots 10 miles
  • Few at 7,000' AGL
Temperatures Readings
Current 4°C / 39°F
Dewpoint 4°C / 39°F
Humidity 100%
Altimeter 30.04" Hg
Pressure 1017.9 hPa
Elevation 207
METAR KGTB 230456Z AUTO 14008KT 10SM FEW070 04/04 A3004 RMK AO2 SLP179 T00360036 400591004 $
Observed Flight Rules
Oct-23 @ 04:56 UTC
(an hour ago)
VFR
Wind Visibility
140° at 8 knots 10 miles
Clouds
  • Few at 7,000' AGL
Temperature Dewpoint
4°C / 39°F 4°C / 39°F
Humidity Altimeter Pressure
100% 30.04" Hg 1017.9 hPa